createdAt,value
2022-11-25T00:01:33.736Z,98659.19
2022-11-25T00:04:02.612Z,98675.72
2022-11-25T00:06:34.050Z,98688.59
2022-11-25T00:09:04.936Z,98693.22
2022-11-25T00:11:37.890Z,98702.44
2022-11-25T00:14:08.715Z,98690.91
2022-11-25T00:16:37.062Z,98711.16
2022-11-25T00:19:05.944Z,98711.16
2022-11-25T00:21:36.010Z,98723.41
2022-11-25T00:24:07.044Z,98728.75
2022-11-25T00:26:37.521Z,98743.50
2022-11-25T00:29:08.498Z,98739.88
2022-11-25T00:31:39.265Z,98754.63
2022-11-25T00:34:08.546Z,98753.00
2022-11-25T00:36:39.988Z,98752.50
2022-11-25T00:39:10.784Z,98756.72
2022-11-25T00:41:56.756Z,98758.06
2022-11-25T00:44:38.981Z,98769.94
2022-11-25T00:47:11.838Z,98776.50
2022-11-25T00:49:42.332Z,98776.84
2022-11-25T00:52:16.341Z,98783.88
2022-11-25T00:54:45.955Z,98785.72
2022-11-25T00:57:14.932Z,98790.06
2022-11-25T00:59:43.628Z,98806.13
2022-11-25T01:02:13.627Z,98801.59
2022-11-25T01:04:42.297Z,98798.94
2022-11-25T01:07:12.223Z,98814.00
2022-11-25T01:09:41.197Z,98823.84
2022-11-25T01:12:09.665Z,98829.19
2022-11-25T01:14:38.590Z,98833.72
2022-11-25T01:17:07.869Z,98843.75
2022-11-25T01:19:40.274Z,98843.09
2022-11-25T01:22:08.948Z,98848.63
2022-11-25T01:24:39.272Z,98852.47
2022-11-25T01:27:08.111Z,98862.53
2022-11-25T01:29:36.588Z,98861.84
2022-11-25T01:32:04.980Z,98864.69
2022-11-25T01:34:34.823Z,98867.88
2022-11-25T01:37:03.303Z,98876.91
2022-11-25T01:39:33.072Z,98888.78
2022-11-25T01:42:04.267Z,98888.28
2022-11-25T01:44:34.907Z,98901.50
2022-11-25T01:47:06.701Z,98902.66
2022-11-25T01:49:40.815Z,98906.03
2022-11-25T01:52:15.522Z,98918.06
2022-11-25T01:54:51.961Z,98920.41
2022-11-25T01:57:26.215Z,98927.59
2022-11-25T01:59:59.254Z,98923.72
2022-11-25T02:02:28.471Z,98925.75
2022-11-25T02:04:58.148Z,98937.63
2022-11-25T02:07:33.281Z,98952.84
2022-11-25T02:10:03.395Z,98950.50
2022-11-25T02:12:33.967Z,98958.03
2022-11-25T02:15:02.334Z,98962.72
2022-11-25T02:17:31.231Z,98959.53
2022-11-25T02:20:04.572Z,98956.19
2022-11-25T02:22:46.691Z,98972.88
2022-11-25T02:25:21.874Z,98981.94
2022-11-25T02:27:53.957Z,98985.06
2022-11-25T02:30:22.705Z,98981.75
2022-11-25T02:32:51.943Z,98992.59
2022-11-25T02:35:32.632Z,99005.63
2022-11-25T02:38:06.404Z,99006.94
2022-11-25T02:40:42.148Z,99009.59
2022-11-25T02:43:11.366Z,99012.44
2022-11-25T02:45:54.085Z,99017.13
2022-11-25T02:48:39.725Z,99019.13
2022-11-25T02:51:13.674Z,99030.66
2022-11-25T02:53:42.174Z,99032.66
2022-11-25T02:56:14.158Z,99036.34
2022-11-25T02:58:43.592Z,99047.03
2022-11-25T03:01:12.185Z,99048.69
2022-11-25T03:03:40.641Z,99055.72
2022-11-25T03:06:10.113Z,99062.91
2022-11-25T03:08:39.553Z,99067.06
2022-11-25T03:11:12.689Z,99061.19
2022-11-25T03:13:42.668Z,99059.00
2022-11-25T03:16:11.782Z,99064.69
2022-11-25T03:18:40.537Z,99069.66
2022-11-25T03:21:08.868Z,99077.16
2022-11-25T03:23:37.252Z,99083.34
2022-11-25T03:26:07.398Z,99081.34
2022-11-25T03:28:37.583Z,99095.72
2022-11-25T03:31:06.436Z,99098.56
2022-11-25T03:33:37.712Z,99104.06
2022-11-25T03:36:08.177Z,99116.41
2022-11-25T03:38:36.690Z,99111.91
2022-11-25T03:41:05.228Z,99117.09
2022-11-25T03:43:35.810Z,99122.28
2022-11-25T03:46:06.739Z,99131.13
2022-11-25T03:48:35.308Z,99136.47
2022-11-25T03:51:03.889Z,99139.84
2022-11-25T03:53:32.557Z,99146.53
2022-11-25T03:56:03.539Z,99156.94
2022-11-25T03:58:32.692Z,99171.78
2022-11-25T04:01:02.682Z,99175.97
2022-11-25T04:03:33.618Z,99183.00
2022-11-25T04:06:02.715Z,99197.38
2022-11-25T04:08:32.218Z,99201.72
2022-11-25T04:11:01.233Z,99208.44
2022-11-25T04:13:32.600Z,99211.78
2022-11-25T04:16:01.194Z,99213.00
2022-11-25T04:18:29.462Z,99227.88
2022-11-25T04:21:01.392Z,99230.06
2022-11-25T04:23:30.005Z,99232.31
2022-11-25T04:26:02.742Z,99243.34
2022-11-25T04:28:40.903Z,99243.19
2022-11-25T04:31:10.674Z,99247.75
2022-11-25T04:33:42.617Z,99257.97
2022-11-25T04:36:13.062Z,99269.50
2022-11-25T04:38:41.558Z,99268.47
2022-11-25T04:41:10.415Z,99274.81
2022-11-25T04:43:43.854Z,99265.44
2022-11-25T04:46:18.440Z,99270.78
2022-11-25T04:48:52.661Z,99280.78
2022-11-25T04:51:23.688Z,99275.75
2022-11-25T04:53:58.057Z,99292.81
2022-11-25T04:56:27.427Z,99302.13
2022-11-25T04:59:14.471Z,99302.13
2022-11-25T05:01:46.813Z,99295.44
2022-11-25T05:04:35.860Z,99314.16
2022-11-25T05:07:06.211Z,99312.63
2022-11-25T05:09:35.099Z,99316.84
2022-11-25T05:12:17.535Z,99325.53
2022-11-25T05:14:46.475Z,99330.56
2022-11-25T05:17:16.423Z,99332.56
2022-11-25T05:19:46.216Z,99327.22
2022-11-25T05:22:19.572Z,99348.63
2022-11-25T05:24:48.214Z,99343.25
2022-11-25T05:27:18.058Z,99344.91
2022-11-25T05:29:51.400Z,99350.81
2022-11-25T05:32:22.840Z,99356.69
2022-11-25T05:34:51.460Z,99364.41
2022-11-25T05:37:24.532Z,99379.44
2022-11-25T05:40:00.340Z,99377.47
2022-11-25T05:42:51.526Z,99382.81
2022-11-25T05:45:21.086Z,99387.31
2022-11-25T05:47:50.353Z,99400.53
2022-11-25T05:50:23.102Z,99395.88
2022-11-25T05:53:06.087Z,99398.25
2022-11-25T05:55:36.624Z,99403.28
2022-11-25T05:58:09.691Z,99412.00
2022-11-25T06:00:38.125Z,99405.19
2022-11-25T06:03:11.437Z,99426.81
2022-11-25T06:05:41.317Z,99417.78
2022-11-25T06:08:11.252Z,99432.84
2022-11-25T06:10:40.689Z,99424.84
2022-11-25T06:13:09.666Z,99430.53
2022-11-25T06:15:43.171Z,99438.56
2022-11-25T06:18:14.220Z,99445.59
2022-11-25T06:20:42.885Z,99450.97
2022-11-25T06:23:13.221Z,99459.97
2022-11-25T06:25:41.979Z,99462.50
2022-11-25T06:28:13.650Z,99465.31
2022-11-25T06:30:46.916Z,99464.72
2022-11-25T06:33:22.258Z,99468.63
2022-11-25T06:35:51.359Z,99465.94
2022-11-25T06:38:21.087Z,99470.00
2022-11-25T06:40:49.863Z,99484.38
2022-11-25T06:43:18.091Z,99479.84
2022-11-25T06:45:46.234Z,99485.50
2022-11-25T06:48:14.618Z,99486.19
2022-11-25T06:50:43.224Z,99496.91
2022-11-25T06:53:12.142Z,99497.91
2022-11-25T06:55:41.945Z,99500.75
2022-11-25T06:58:34.309Z,99486.66
2022-11-25T07:01:02.639Z,99476.81
2022-11-25T07:03:31.230Z,99485.50
2022-11-25T07:05:59.710Z,99475.94
2022-11-25T07:08:32.423Z,99491.19
2022-11-25T07:11:09.466Z,99488.13
2022-11-25T07:13:37.801Z,99488.97
2022-11-25T07:16:08.299Z,99493.28
2022-11-25T07:18:38.998Z,99491.34
2022-11-25T07:21:09.491Z,99507.31
2022-11-25T07:23:39.186Z,99504.88
2022-11-25T07:26:10.865Z,99518.53
2022-11-25T07:28:40.495Z,99535.88
2022-11-25T07:34:01.803Z,99554.38
2022-11-25T07:36:32.289Z,99550.69
2022-11-25T07:39:03.186Z,99568.59
2022-11-25T07:41:34.139Z,99562.94
2022-11-25T07:44:04.379Z,99578.56
2022-11-25T07:46:45.434Z,99580.94
2022-11-25T07:49:17.424Z,99577.09
2022-11-25T07:51:50.531Z,99576.81
2022-11-25T07:54:18.909Z,99588.91
2022-11-25T07:56:49.897Z,99594.94
2022-11-25T07:59:19.899Z,99616.19
2022-11-25T08:01:50.800Z,99617.00
2022-11-25T08:04:20.724Z,99628.28
2022-11-25T08:06:51.044Z,99630.81
2022-11-25T08:09:21.415Z,99642.34
2022-11-25T08:11:51.632Z,99656.44
2022-11-25T08:14:21.590Z,99662.91
2022-11-25T08:16:50.057Z,99666.97
2022-11-25T08:19:18.948Z,99667.50
2022-11-25T08:21:48.567Z,99679.75
2022-11-25T08:24:17.903Z,99672.44
2022-11-25T08:26:46.626Z,99682.13
2022-11-25T08:29:18.172Z,99690.16
2022-11-25T08:31:46.798Z,99694.53
2022-11-25T08:34:20.205Z,99699.88
2022-11-25T08:36:50.176Z,99701.41
2022-11-25T08:42:09.260Z,99716.03
2022-11-25T08:44:38.999Z,99721.41
2022-11-25T08:47:07.402Z,99726.44
2022-11-25T08:49:40.802Z,99731.19
2022-11-25T08:52:10.566Z,99742.31
2022-11-25T08:54:39.708Z,99744.38
2022-11-25T08:57:08.799Z,99745.78
2022-11-25T08:59:39.322Z,99755.28
2022-11-25T09:02:10.031Z,99756.06
2022-11-25T09:04:38.595Z,99757.97
2022-11-25T09:07:07.010Z,99770.63
2022-11-25T09:09:36.041Z,99781.28
2022-11-25T09:12:05.176Z,99789.09
2022-11-25T09:14:33.679Z,99790.03
2022-11-25T09:17:03.925Z,99798.16
2022-11-25T09:19:32.854Z,99802.56
2022-11-25T09:22:01.137Z,99809.16
2022-11-25T09:24:29.516Z,99816.75
2022-11-25T09:26:58.387Z,99814.13
2022-11-25T09:29:27.897Z,99819.72
2022-11-25T09:31:56.399Z,99828.53
2022-11-25T09:34:26.478Z,99832.78
2022-11-25T09:36:54.886Z,99843.69
2022-11-25T09:39:28.255Z,99845.63
2022-11-25T09:42:26.709Z,99847.78
2022-11-25T09:45:25.626Z,99849.63
2022-11-25T09:48:08.283Z,99851.94
2022-11-25T09:50:50.547Z,99854.19
2022-11-25T09:53:32.923Z,99852.72
2022-11-25T09:56:05.977Z,99858.25
2022-11-25T09:58:38.506Z,99856.84
2022-11-25T10:01:09.213Z,99869.50
2022-11-25T10:03:42.571Z,99866.16
2022-11-25T10:06:18.181Z,99863.09
2022-11-25T10:08:51.317Z,99858.41
2022-11-25T10:11:29.759Z,99858.94
2022-11-25T10:14:04.717Z,99860.75
2022-11-25T10:16:40.822Z,99872.19
2022-11-25T10:19:20.235Z,99869.84
2022-11-25T10:21:50.642Z,99869.78
2022-11-25T10:24:21.534Z,99874.53
2022-11-25T10:26:57.268Z,99870.81
2022-11-25T10:29:29.037Z,99875.31
2022-11-25T10:32:05.781Z,99884.56
2022-11-25T10:34:42.168Z,99894.19
2022-11-25T10:37:19.375Z,99897.13
2022-11-25T10:39:48.389Z,99889.44
2022-11-25T10:42:22.335Z,99887.22
2022-11-25T10:44:51.197Z,99891.13
2022-11-25T10:47:33.596Z,99891.69
2022-11-25T10:50:14.651Z,99896.31
2022-11-25T10:52:52.427Z,99895.88
2022-11-25T10:55:24.317Z,99896.47
2022-11-25T10:57:53.170Z,99892.19
2022-11-25T11:00:33.718Z,99881.38
2022-11-25T11:03:14.961Z,99889.75
2022-11-25T11:05:49.941Z,99896.94
2022-11-25T11:08:22.588Z,99909.00
2022-11-25T11:11:17.235Z,99912.84
2022-11-25T11:13:47.063Z,99917.06
2022-11-25T11:16:31.490Z,99922.19
2022-11-25T11:19:00.503Z,99908.09
2022-11-25T11:21:33.259Z,99912.00
2022-11-25T11:24:04.237Z,99912.50
2022-11-25T11:26:34.721Z,99920.56
2022-11-25T11:29:09.838Z,99936.31
2022-11-25T11:31:48.008Z,99924.34
2022-11-25T11:34:48.263Z,99926.25
2022-11-25T11:37:31.302Z,99933.19
2022-11-25T11:40:16.545Z,99942.22
2022-11-25T11:42:59.094Z,99953.72
2022-11-25T11:45:43.722Z,99953.91
2022-11-25T11:48:21.671Z,99946.38
2022-11-25T11:50:52.538Z,99940.72
2022-11-25T11:53:27.293Z,99948.00
2022-11-25T11:56:34.886Z,99960.59
2022-11-25T11:59:06.470Z,99951.84
2022-11-25T12:01:48.689Z,99966.91
2022-11-25T12:04:22.995Z,99957.78
2022-11-25T12:07:03.043Z,99979.78
2022-11-25T12:09:33.986Z,99982.34
2022-11-25T12:12:07.595Z,99973.75
2022-11-25T12:14:43.088Z,99982.75
2022-11-25T12:17:17.202Z,99977.75
2022-11-25T12:19:54.340Z,99987.72
2022-11-25T12:22:28.217Z,99981.28
2022-11-25T12:25:08.930Z,99983.78
2022-11-25T12:27:43.468Z,99989.69
2022-11-25T12:30:14.948Z,99985.63
2022-11-25T12:32:58.401Z,99989.63
2022-11-25T12:35:39.300Z,99989.13
2022-11-25T12:38:19.859Z,99989.13
2022-11-25T12:40:54.510Z,99997.63
2022-11-25T12:43:34.955Z,99992.72
2022-11-25T12:46:14.566Z,99998.34
2022-11-25T12:48:44.408Z,99998.91
2022-11-25T12:51:25.860Z,100004.41
2022-11-25T12:54:08.120Z,100021.53
2022-11-25T12:56:53.465Z,100029.47
2022-11-25T12:59:44.471Z,100020.00
2022-11-25T13:02:36.254Z,100012.69
2022-11-25T13:05:43.425Z,100011.22
2022-11-25T13:08:23.171Z,100029.81
2022-11-25T13:11:06.833Z,100038.81
2022-11-25T13:13:48.468Z,100045.78
2022-11-25T13:16:21.050Z,100039.06
2022-11-25T13:18:51.256Z,100041.47
2022-11-25T13:21:21.472Z,100045.19
2022-11-25T13:23:53.323Z,100044.91
2022-11-25T13:26:50.495Z,100053.66
2022-11-25T13:29:56.310Z,100055.50
2022-11-25T13:32:43.427Z,100063.59
2022-11-25T13:35:37.283Z,100063.16
2022-11-25T13:38:37.096Z,100061.47
2022-11-25T13:41:24.278Z,100080.78
2022-11-25T13:44:06.831Z,100076.09
2022-11-25T13:46:41.082Z,100085.56
2022-11-25T13:49:26.229Z,100089.97
2022-11-25T13:51:57.018Z,100088.28
2022-11-25T13:54:33.091Z,100082.88
2022-11-25T13:57:19.834Z,100081.03
2022-11-25T13:59:54.393Z,100092.03
2022-11-25T14:02:33.889Z,100099.97
2022-11-25T14:05:16.961Z,100108.59
2022-11-25T14:07:53.066Z,100099.00
2022-11-25T14:10:36.478Z,100111.13
2022-11-25T14:13:21.833Z,100113.84
2022-11-25T14:16:14.940Z,100107.63
2022-11-25T14:19:43.349Z,100112.03
2022-11-25T14:22:07.957Z,100118.78
2022-11-25T14:24:41.054Z,100126.34
2022-11-25T14:27:17.316Z,100129.56
2022-11-25T14:29:52.487Z,100139.38
2022-11-25T14:32:24.181Z,100140.38
2022-11-25T14:34:59.454Z,100139.19
2022-11-25T14:37:36.939Z,100145.63
2022-11-25T14:40:09.666Z,100149.16
2022-11-25T14:42:41.105Z,100152.53
2022-11-25T14:45:22.641Z,100156.25
2022-11-25T14:47:51.244Z,100172.09
2022-11-25T14:50:34.737Z,100176.31
2022-11-25T14:53:09.435Z,100177.31
2022-11-25T14:55:39.026Z,100178.50
2022-11-25T14:58:07.602Z,100178.50
2022-11-25T15:00:36.167Z,100176.78
2022-11-25T15:03:06.663Z,100179.50
2022-11-25T15:05:36.547Z,100183.19
2022-11-25T15:08:14.561Z,100181.53
2022-11-25T15:10:51.061Z,100188.28
2022-11-25T15:13:30.964Z,100196.03
2022-11-25T15:16:05.998Z,100190.47
2022-11-25T15:18:36.833Z,100198.03
2022-11-25T15:21:05.907Z,100193.69
2022-11-25T15:23:39.377Z,100202.13
2022-11-25T15:26:19.257Z,100195.69
2022-11-25T15:28:48.339Z,100198.88
2022-11-25T15:31:21.173Z,100205.47
2022-11-25T15:33:54.933Z,100210.69
2022-11-25T15:36:24.809Z,100209.34
2022-11-25T15:38:54.867Z,100210.84
2022-11-25T15:41:35.405Z,100223.47
2022-11-25T15:44:06.351Z,100225.47
2022-11-25T15:46:38.008Z,100223.28
2022-11-25T15:49:08.963Z,100231.53
2022-11-25T15:51:42.937Z,100237.44
2022-11-25T15:54:22.498Z,100240.78
2022-11-25T15:56:52.791Z,100237.16
2022-11-25T15:59:48.126Z,100240.69
2022-11-25T16:02:41.082Z,100246.34
2022-11-25T16:05:35.782Z,100266.53
2022-11-25T16:08:27.252Z,100256.75
2022-11-25T16:11:19.323Z,100262.56
2022-11-25T16:13:48.802Z,100266.75
2022-11-25T16:16:24.157Z,100264.88
2022-11-25T16:19:19.415Z,100270.75
2022-11-25T16:21:53.799Z,100270.03
2022-11-25T16:24:35.227Z,100277.41
2022-11-25T16:27:08.772Z,100272.38
2022-11-25T16:29:41.003Z,100291.56
2022-11-25T16:32:16.194Z,100294.41
2022-11-25T16:34:44.954Z,100297.94
2022-11-25T16:37:13.844Z,100301.47
2022-11-25T16:39:43.446Z,100301.47
2022-11-25T16:42:19.959Z,100303.31
2022-11-25T16:44:50.087Z,100313.09
2022-11-25T16:47:19.980Z,100303.16
2022-11-25T16:49:48.417Z,100302.34
2022-11-25T16:52:16.632Z,100315.09
2022-11-25T16:54:44.823Z,100309.03
2022-11-25T16:57:22.034Z,100310.69
2022-11-25T16:59:57.230Z,100317.47
2022-11-25T17:02:27.760Z,100311.91
2022-11-25T17:04:57.306Z,100323.88
2022-11-25T17:07:33.932Z,100328.72
2022-11-25T17:10:02.901Z,100328.56
2022-11-25T17:12:36.195Z,100329.53
2022-11-25T17:15:09.036Z,100326.00
2022-11-25T17:17:37.691Z,100330.19
2022-11-25T17:20:07.943Z,100339.97
2022-11-25T17:22:39.367Z,100345.34
2022-11-25T17:25:08.955Z,100343.78
2022-11-25T17:27:39.094Z,100345.34
2022-11-25T17:30:14.476Z,100342.81
2022-11-25T17:32:43.416Z,100342.66
2022-11-25T17:35:19.062Z,100340.28
2022-11-25T17:37:48.033Z,100342.97
2022-11-25T17:40:17.479Z,100340.28
2022-11-25T17:42:50.170Z,100339.56
2022-11-25T17:45:20.568Z,100343.28
2022-11-25T17:47:49.281Z,100337.91
2022-11-25T17:50:20.078Z,100337.34
2022-11-25T17:52:48.502Z,100343.28
2022-11-25T17:55:19.764Z,100335.28
2022-11-25T17:57:50.360Z,100334.81
2022-11-25T18:00:21.267Z,100326.03
2022-11-25T18:02:50.731Z,100329.44
2022-11-25T18:05:21.075Z,100334.09
2022-11-25T18:07:49.971Z,100340.50
2022-11-25T18:10:20.307Z,100335.13
2022-11-25T18:12:53.752Z,100345.03
2022-11-25T18:15:25.181Z,100331.41
2022-11-25T18:18:01.655Z,100330.56
2022-11-25T18:20:33.068Z,100335.13
2022-11-25T18:23:02.375Z,100335.13
2022-11-25T18:25:33.014Z,100331.41
2022-11-25T18:28:05.381Z,100336.78
2022-11-25T18:30:35.474Z,100336.50
2022-11-25T18:33:06.396Z,100328.72
2022-11-25T18:35:36.865Z,100334.81
2022-11-25T18:38:05.812Z,100326.91
2022-11-25T18:40:35.269Z,100341.91
2022-11-25T18:43:06.118Z,100345.91
2022-11-25T18:45:38.122Z,100346.56
2022-11-25T18:48:14.721Z,100352.09
2022-11-25T18:50:43.797Z,100341.19
2022-11-25T18:53:12.154Z,100350.13
2022-11-25T18:55:40.570Z,100346.72
2022-11-25T18:58:17.021Z,100342.19
2022-11-25T19:00:48.520Z,100346.72
2022-11-25T19:03:20.380Z,100336.78
2022-11-25T19:05:50.078Z,100337.81
2022-11-25T19:08:20.061Z,100340.50
2022-11-25T19:10:50.590Z,100340.19
2022-11-25T19:13:27.138Z,100346.72
2022-11-25T19:15:56.281Z,100364.56
2022-11-25T19:18:27.379Z,100362.19
2022-11-25T19:20:55.935Z,100360.50
2022-11-25T19:23:26.310Z,100359.94
2022-11-25T19:25:56.070Z,100367.75
2022-11-25T19:28:26.153Z,100365.03
2022-11-25T19:31:00.016Z,100363.34
2022-11-25T19:33:32.184Z,100360.66
2022-11-25T19:36:00.941Z,100361.50
2022-11-25T19:38:31.340Z,100362.50
2022-11-25T19:41:00.053Z,100360.66
2022-11-25T19:43:29.861Z,100368.03
2022-11-25T19:45:59.305Z,100368.03
2022-11-25T19:48:32.168Z,100378.50
2022-11-25T19:51:02.343Z,100382.88
2022-11-25T19:53:34.176Z,100383.88
2022-11-25T19:56:04.756Z,100395.66
2022-11-25T19:58:34.999Z,100396.31
2022-11-25T20:01:06.270Z,100391.97
2022-11-25T20:03:36.851Z,100390.78
2022-11-25T20:06:06.423Z,100387.09
2022-11-25T20:08:34.763Z,100388.09
2022-11-25T20:11:02.806Z,100398.03
2022-11-25T20:13:31.059Z,100398.41
2022-11-25T20:16:00.767Z,100404.78
2022-11-25T20:18:29.424Z,100406.19
2022-11-25T20:21:02.339Z,100415.25
2022-11-25T20:23:38.787Z,100419.66
2022-11-25T20:26:17.738Z,100434.66
2022-11-25T20:28:46.654Z,100436.31
2022-11-25T20:31:16.671Z,100442.56
2022-11-25T20:33:45.297Z,100436.47
2022-11-25T20:36:16.831Z,100435.47
2022-11-25T20:38:50.502Z,100430.09
2022-11-25T20:41:24.378Z,100427.09
2022-11-25T20:43:56.645Z,100433.19
2022-11-25T20:46:29.504Z,100424.25
2022-11-25T20:49:00.601Z,100432.00
2022-11-25T20:51:30.138Z,100432.56
2022-11-25T20:54:01.006Z,100432.41
2022-11-25T20:56:30.143Z,100428.56
2022-11-25T20:58:58.713Z,100429.25
2022-11-25T21:01:28.358Z,100423.53
2022-11-25T21:03:56.973Z,100417.56
2022-11-25T21:06:28.676Z,100416.53
2022-11-25T21:08:59.455Z,100411.03
2022-11-25T21:11:28.350Z,100409.84
2022-11-25T21:13:56.843Z,100410.53
2022-11-25T21:16:25.743Z,100402.16
2022-11-25T21:18:56.007Z,100406.38
2022-11-25T21:21:30.921Z,100403.38
2022-11-25T21:24:02.417Z,100395.97
2022-11-25T21:26:30.857Z,100394.97
2022-11-25T21:28:59.516Z,100393.28
2022-11-25T21:31:27.928Z,100395.53
2022-11-25T21:33:59.910Z,100404.28
2022-11-25T21:36:30.496Z,100413.91
2022-11-25T21:39:05.043Z,100403.28
2022-11-25T21:41:34.097Z,100407.66
2022-11-25T21:44:05.492Z,100406.66
2022-11-25T21:46:33.928Z,100398.56
2022-11-25T21:49:10.448Z,100399.56
2022-11-25T21:51:38.906Z,100392.34
2022-11-25T21:54:07.699Z,100402.25
2022-11-25T21:56:36.157Z,100403.97
2022-11-25T21:59:05.769Z,100419.44
2022-11-25T22:01:34.288Z,100400.59
2022-11-25T22:04:04.534Z,100389.97
2022-11-25T22:06:33.083Z,100393.81
2022-11-25T22:09:01.606Z,100395.81
2022-11-25T22:11:31.819Z,100391.75
2022-11-25T22:14:02.280Z,100396.13
2022-11-25T22:16:32.777Z,100399.28
2022-11-25T22:19:01.438Z,100385.66
2022-11-25T22:21:31.701Z,100375.72
2022-11-25T22:24:00.362Z,100386.06
2022-11-25T22:26:32.178Z,100391.13
2022-11-25T22:29:02.572Z,100394.03
2022-11-25T22:31:31.230Z,100387.03
2022-11-25T22:33:59.510Z,100370.19
2022-11-25T22:36:34.546Z,100369.41
2022-11-25T22:39:13.988Z,100367.09
2022-11-25T22:41:43.612Z,100359.06
2022-11-25T22:44:20.557Z,100344.25
2022-11-25T22:46:49.984Z,100339.91
2022-11-25T22:49:32.110Z,100346.13
2022-11-25T22:52:02.355Z,100336.19
2022-11-25T22:54:30.812Z,100335.84
2022-11-25T22:56:59.186Z,100344.28
2022-11-25T22:59:27.784Z,100336.56
2022-11-25T23:01:56.615Z,100329.84
2022-11-25T23:04:24.998Z,100327.81
2022-11-25T23:06:56.086Z,100339.97
2022-11-25T23:09:25.983Z,100361.91
2022-11-25T23:11:55.451Z,100342.34
2022-11-25T23:14:23.948Z,100340.38
2022-11-25T23:16:52.412Z,100330.91
2022-11-25T23:19:20.815Z,100328.91
2022-11-25T23:21:48.832Z,100330.91
2022-11-25T23:24:18.471Z,100323.84
2022-11-25T23:26:48.571Z,100331.78
2022-11-25T23:29:17.202Z,100347.78
2022-11-25T23:31:45.551Z,100342.22
2022-11-25T23:34:14.109Z,100306.44
2022-11-25T23:36:47.979Z,100327.72
2022-11-25T23:39:20.451Z,100318.59
2022-11-25T23:41:51.382Z,100326.22
2022-11-25T23:44:25.064Z,100328.75
2022-11-25T23:46:55.499Z,100331.78
2022-11-25T23:49:27.052Z,100336.00
2022-11-25T23:51:59.582Z,100330.28
2022-11-25T23:54:40.286Z,100342.78
2022-11-25T23:57:16.188Z,100340.25
2022-11-25T23:59:45.162Z,100321.53
